createdAt,value
2018-03-31T00:01:14.784Z,6.90
2018-03-31T00:03:40.612Z,6.90
2018-03-31T00:06:06.505Z,6.80
2018-03-31T00:08:33.048Z,6.80
2018-03-31T00:10:58.885Z,6.70
2018-03-31T00:13:24.735Z,6.90
2018-03-31T00:15:50.571Z,7.10
2018-03-31T00:18:16.416Z,7.20
2018-03-31T00:20:42.268Z,7.30
2018-03-31T00:23:08.096Z,7.40
2018-03-31T00:25:33.934Z,7.50
2018-03-31T00:27:59.772Z,7.60
2018-03-31T00:30:26.339Z,7.70
2018-03-31T00:32:52.190Z,7.60
2018-03-31T00:35:18.071Z,7.60
2018-03-31T00:37:43.896Z,7.40
2018-03-31T00:40:09.737Z,7.30
2018-03-31T00:42:35.591Z,7.00
2018-03-31T00:45:02.163Z,6.60
2018-03-31T00:47:27.996Z,6.60
2018-03-31T00:49:53.860Z,6.50
2018-03-31T00:52:19.718Z,6.40
2018-03-31T00:54:45.551Z,6.20
2018-03-31T00:57:11.734Z,6.20
2018-03-31T00:59:37.559Z,6.30
2018-03-31T01:02:03.389Z,6.20
2018-03-31T01:04:29.248Z,6.20
2018-03-31T01:06:55.077Z,6.20
2018-03-31T01:09:20.908Z,6.10
2018-03-31T01:11:46.788Z,6.10
2018-03-31T01:14:12.616Z,6.00
2018-03-31T01:16:38.444Z,6.10
2018-03-31T01:19:04.293Z,6.20
2018-03-31T01:21:30.869Z,6.30
2018-03-31T01:23:56.705Z,6.20
2018-03-31T01:26:22.609Z,6.30
2018-03-31T01:28:49.184Z,6.50
2018-03-31T01:31:15.013Z,6.50
2018-03-31T01:33:40.856Z,6.70
2018-03-31T01:36:06.684Z,6.70
2018-03-31T01:38:32.543Z,6.90
2018-03-31T01:40:58.426Z,7.10
2018-03-31T01:43:25.148Z,7.20
2018-03-31T01:45:51.007Z,7.20
2018-03-31T01:48:16.878Z,7.30
2018-03-31T01:50:42.722Z,7.30
2018-03-31T01:53:08.557Z,7.30
2018-03-31T01:55:34.416Z,7.20
2018-03-31T01:58:00.252Z,7.00
2018-03-31T02:00:26.081Z,6.80
2018-03-31T02:02:52.118Z,6.70
2018-03-31T02:05:17.970Z,6.50
2018-03-31T02:07:44.543Z,6.10
2018-03-31T02:10:10.416Z,6.10
2018-03-31T02:12:36.252Z,5.90
2018-03-31T02:15:02.093Z,5.90
2018-03-31T02:17:28.130Z,5.90
2018-03-31T02:19:53.985Z,5.90
2018-03-31T02:22:20.565Z,5.90
2018-03-31T02:24:46.552Z,5.90
2018-03-31T02:27:12.386Z,5.80
2018-03-31T02:29:38.231Z,5.70
2018-03-31T02:32:05.162Z,5.60
2018-03-31T02:34:31.006Z,5.60
2018-03-31T02:36:56.845Z,5.60
2018-03-31T02:39:22.808Z,5.50
2018-03-31T02:41:48.658Z,5.60
2018-03-31T02:44:14.501Z,5.60
2018-03-31T02:46:40.383Z,5.60
2018-03-31T02:49:06.969Z,5.60
2018-03-31T02:51:32.796Z,5.60
2018-03-31T02:53:58.681Z,5.60
2018-03-31T02:56:24.548Z,5.60
2018-03-31T02:58:51.125Z,5.60
2018-03-31T03:01:16.989Z,5.60
2018-03-31T03:03:42.825Z,5.70
2018-03-31T03:06:08.662Z,5.70
2018-03-31T03:08:34.512Z,5.90
2018-03-31T03:11:01.084Z,6.00
2018-03-31T03:13:26.920Z,6.00
2018-03-31T03:15:52.796Z,6.00
2018-03-31T03:18:18.636Z,6.00
2018-03-31T03:20:44.464Z,6.00
2018-03-31T03:23:10.441Z,5.90
2018-03-31T03:25:36.270Z,5.90
2018-03-31T03:28:02.845Z,5.70
2018-03-31T03:30:28.684Z,5.70
2018-03-31T03:32:54.532Z,5.60
2018-03-31T03:35:20.377Z,5.50
2018-03-31T03:37:46.249Z,5.30
2018-03-31T03:40:12.827Z,5.30
2018-03-31T03:42:38.686Z,5.30
2018-03-31T03:45:04.726Z,5.20
2018-03-31T03:47:30.567Z,5.20
2018-03-31T03:49:56.417Z,5.20
2018-03-31T03:52:23.149Z,5.20
2018-03-31T03:54:50.482Z,5.20
2018-03-31T03:57:16.324Z,5.40
2018-03-31T03:59:42.203Z,5.30
2018-03-31T04:02:08.773Z,5.20
2018-03-31T04:04:34.604Z,5.20
2018-03-31T04:07:00.461Z,5.10
2018-03-31T04:09:26.311Z,5.00
2018-03-31T04:11:52.153Z,5.00
2018-03-31T04:14:18.045Z,4.90
2018-03-31T04:16:43.889Z,4.90
2018-03-31T04:19:09.717Z,4.90
2018-03-31T04:21:35.561Z,5.00
2018-03-31T04:24:01.380Z,5.00
2018-03-31T04:26:27.217Z,5.00
2018-03-31T04:28:53.133Z,5.10
2018-03-31T04:31:18.950Z,5.20
2018-03-31T04:33:44.788Z,5.30
2018-03-31T04:36:10.772Z,5.40
2018-03-31T04:38:36.619Z,5.50
2018-03-31T04:41:02.449Z,5.60
2018-03-31T04:43:28.472Z,5.70
2018-03-31T04:45:54.321Z,5.70
2018-03-31T04:48:20.159Z,5.80
2018-03-31T04:50:46.038Z,5.80
2018-03-31T04:53:11.906Z,6.10
2018-03-31T04:55:37.738Z,6.20
2018-03-31T04:58:03.591Z,6.10
2018-03-31T05:00:30.169Z,5.80
2018-03-31T05:02:56.013Z,5.80
2018-03-31T05:05:21.884Z,5.70
2018-03-31T05:07:47.746Z,5.60
2018-03-31T05:10:14.349Z,5.50
2018-03-31T05:12:40.229Z,5.50
2018-03-31T05:15:06.816Z,5.40
2018-03-31T05:17:32.653Z,5.40
2018-03-31T05:19:58.505Z,5.40
2018-03-31T05:22:24.351Z,5.30
2018-03-31T05:24:50.192Z,5.10
2018-03-31T05:27:16.096Z,5.10
2018-03-31T05:29:41.940Z,5.20
2018-03-31T05:32:07.769Z,5.20
2018-03-31T05:34:33.721Z,5.30
2018-03-31T05:36:59.584Z,5.20
2018-03-31T05:39:26.148Z,5.20
2018-03-31T05:41:52.282Z,5.20
2018-03-31T05:44:18.158Z,5.20
2018-03-31T05:46:44.011Z,5.20
2018-03-31T05:49:09.862Z,5.20
2018-03-31T05:51:36.445Z,5.50
2018-03-31T05:54:02.295Z,5.50
2018-03-31T05:56:28.201Z,5.50
2018-03-31T05:58:54.045Z,5.70
2018-03-31T06:01:19.954Z,5.90
2018-03-31T06:03:46.974Z,6.00
2018-03-31T06:06:12.809Z,6.00
2018-03-31T06:08:39.407Z,6.20
2018-03-31T06:11:05.257Z,6.20
2018-03-31T06:13:31.085Z,6.50
2018-03-31T06:15:56.921Z,6.50
2018-03-31T06:18:22.992Z,6.80
2018-03-31T06:20:48.859Z,6.50
2018-03-31T06:23:14.692Z,6.50
2018-03-31T06:25:40.557Z,6.80
2018-03-31T06:28:06.385Z,6.80
2018-03-31T06:30:32.267Z,7.30
2018-03-31T06:32:58.088Z,7.80
2018-03-31T06:35:23.928Z,8.30
2018-03-31T06:37:49.804Z,9.20
2018-03-31T06:40:15.883Z,10.10
2018-03-31T06:42:41.726Z,10.80
2018-03-31T06:45:07.562Z,11.30
2018-03-31T06:47:33.686Z,11.60
2018-03-31T06:49:59.521Z,11.90
2018-03-31T06:52:25.361Z,11.90
2018-03-31T06:54:51.400Z,12.10
2018-03-31T06:57:17.264Z,12.40
2018-03-31T06:59:43.105Z,12.80
2018-03-31T07:02:08.957Z,12.60
2018-03-31T07:04:34.851Z,13.00
2018-03-31T07:07:01.432Z,13.50
2018-03-31T07:09:27.300Z,13.50
2018-03-31T07:11:53.162Z,13.40
2018-03-31T07:14:19.745Z,14.00
2018-03-31T07:16:45.616Z,14.00
2018-03-31T07:19:11.457Z,14.20
2018-03-31T07:21:37.288Z,14.40
2018-03-31T07:24:03.315Z,14.70
2018-03-31T07:26:29.158Z,14.20
2018-03-31T07:28:54.997Z,14.50
2018-03-31T07:31:21.838Z,14.40
2018-03-31T07:33:47.691Z,14.40
2018-03-31T07:36:13.569Z,13.30
2018-03-31T07:38:39.416Z,13.40
2018-03-31T07:41:05.257Z,14.00
2018-03-31T07:43:31.094Z,14.70
2018-03-31T07:45:56.988Z,14.90
2018-03-31T07:48:22.835Z,15.60
2018-03-31T07:50:48.676Z,15.40
2018-03-31T07:53:14.732Z,14.90
2018-03-31T07:55:40.575Z,14.90
2018-03-31T07:58:07.134Z,16.40
2018-03-31T08:00:33.727Z,17.20
2018-03-31T08:02:59.560Z,17.20
2018-03-31T08:05:25.401Z,18.80
2018-03-31T08:07:51.457Z,19.10
2018-03-31T08:10:18.047Z,20.00
2018-03-31T08:12:43.886Z,20.00
2018-03-31T08:15:09.758Z,20.60
2018-03-31T08:17:35.596Z,21.50
2018-03-31T08:20:01.446Z,22.10
2018-03-31T08:22:27.673Z,22.50
2018-03-31T08:24:53.521Z,22.10
2018-03-31T08:27:19.377Z,21.80
2018-03-31T08:29:45.378Z,21.30
2018-03-31T08:32:11.242Z,21.20
2018-03-31T08:34:37.833Z,22.80
2018-03-31T08:37:03.908Z,22.70
2018-03-31T08:39:29.745Z,23.60
2018-03-31T08:41:55.582Z,23.70
2018-03-31T08:44:22.225Z,23.70
2018-03-31T08:46:48.065Z,23.60
2018-03-31T08:49:14.657Z,21.10
2018-03-31T08:51:40.581Z,21.00
2018-03-31T08:54:06.408Z,21.00
2018-03-31T08:56:32.245Z,19.30
2018-03-31T08:58:58.224Z,17.80
2018-03-31T09:01:24.053Z,17.80
2018-03-31T09:03:49.931Z,18.70
2018-03-31T09:06:15.930Z,18.50
2018-03-31T09:08:43.235Z,17.70
2018-03-31T09:11:09.796Z,18.10
2018-03-31T09:13:35.686Z,18.00
2018-03-31T09:16:01.532Z,17.80
2018-03-31T09:18:28.126Z,16.90
2018-03-31T09:20:53.989Z,16.80
2018-03-31T09:23:19.839Z,16.60
2018-03-31T09:25:45.710Z,16.30
2018-03-31T09:28:11.597Z,16.00
2018-03-31T09:30:37.439Z,16.00
2018-03-31T09:33:03.267Z,15.70
2018-03-31T09:35:29.130Z,15.60
2018-03-31T09:37:54.986Z,15.70
2018-03-31T09:40:20.852Z,15.30
2018-03-31T09:42:46.748Z,15.20
2018-03-31T09:45:12.589Z,14.50
2018-03-31T09:47:38.422Z,14.80
2018-03-31T09:50:04.588Z,14.90
2018-03-31T09:52:30.426Z,14.30
2018-03-31T09:54:56.269Z,14.20
2018-03-31T09:57:22.164Z,14.20
2018-03-31T09:59:48.004Z,14.20
2018-03-31T10:02:13.846Z,14.10
2018-03-31T10:04:39.748Z,14.10
2018-03-31T10:07:05.585Z,14.10
2018-03-31T10:09:31.425Z,14.10
2018-03-31T10:11:57.389Z,13.60
2018-03-31T10:14:23.230Z,13.20
2018-03-31T10:16:49.168Z,13.50
2018-03-31T10:19:15.801Z,13.50
2018-03-31T10:21:41.658Z,13.50
2018-03-31T10:24:08.229Z,13.50
2018-03-31T10:26:34.090Z,13.50
2018-03-31T10:28:59.923Z,13.40
2018-03-31T10:31:25.744Z,13.50
2018-03-31T10:33:52.030Z,13.50
2018-03-31T10:36:17.898Z,13.50
2018-03-31T10:38:43.737Z,13.70
2018-03-31T10:41:09.725Z,13.80
2018-03-31T10:43:35.561Z,13.70
2018-03-31T10:46:01.389Z,13.10
2018-03-31T10:48:27.261Z,13.20
2018-03-31T10:50:53.122Z,12.90
2018-03-31T10:53:18.972Z,13.40
2018-03-31T10:55:44.825Z,13.40
2018-03-31T10:58:10.656Z,13.20
2018-03-31T11:00:36.484Z,13.30
2018-03-31T11:03:02.353Z,13.00
2018-03-31T11:05:28.210Z,12.90
2018-03-31T11:07:54.079Z,12.80
2018-03-31T11:10:19.974Z,13.00
2018-03-31T11:12:45.831Z,13.40
2018-03-31T11:15:11.667Z,13.60
2018-03-31T11:17:37.580Z,13.70
2018-03-31T11:20:03.404Z,13.60
2018-03-31T11:22:29.232Z,13.30
2018-03-31T11:24:55.094Z,13.20
2018-03-31T11:27:20.918Z,13.40
2018-03-31T11:29:46.757Z,13.70
2018-03-31T11:32:12.600Z,13.80
2018-03-31T11:34:38.436Z,13.80
2018-03-31T11:37:04.276Z,13.60
2018-03-31T11:39:30.141Z,13.40
2018-03-31T11:41:55.976Z,13.40
2018-03-31T11:44:21.824Z,13.30
2018-03-31T11:46:47.685Z,13.20
2018-03-31T11:49:13.526Z,13.40
2018-03-31T11:51:40.092Z,14.10
2018-03-31T11:54:06.117Z,14.10
2018-03-31T11:56:31.962Z,14.30
2018-03-31T11:58:57.794Z,14.10
2018-03-31T12:01:24.428Z,14.20
2018-03-31T12:03:50.280Z,14.20
2018-03-31T12:06:16.865Z,14.40
2018-03-31T12:08:43.351Z,14.40
2018-03-31T12:11:09.228Z,14.60
2018-03-31T12:13:35.016Z,14.90
2018-03-31T12:16:00.856Z,14.50
2018-03-31T12:18:28.341Z,14.70
2018-03-31T12:20:54.191Z,14.70
2018-03-31T12:23:21.121Z,14.20
2018-03-31T12:25:47.240Z,14.20
2018-03-31T12:28:13.073Z,14.30
2018-03-31T12:30:38.933Z,14.50
2018-03-31T12:33:04.766Z,14.40
2018-03-31T12:35:32.090Z,14.40
2018-03-31T12:37:57.944Z,14.40
2018-03-31T12:40:23.778Z,14.20
2018-03-31T12:42:49.632Z,14.10
2018-03-31T12:45:16.253Z,14.20
2018-03-31T12:47:42.095Z,14.20
2018-03-31T12:50:07.941Z,14.30
2018-03-31T12:52:33.820Z,13.90
2018-03-31T12:54:59.664Z,14.00
2018-03-31T12:57:25.494Z,14.10
2018-03-31T12:59:51.379Z,14.30
2018-03-31T13:02:17.961Z,14.50
2018-03-31T13:04:43.792Z,14.50
2018-03-31T13:07:09.768Z,14.40
2018-03-31T13:09:35.613Z,14.50
2018-03-31T13:12:01.454Z,14.50
2018-03-31T13:14:27.319Z,14.40
2018-03-31T13:16:53.169Z,14.20
2018-03-31T13:19:19.046Z,13.70
2018-03-31T13:21:44.933Z,13.80
2018-03-31T13:24:10.771Z,13.90
2018-03-31T13:26:36.609Z,14.10
2018-03-31T13:29:02.498Z,14.30
2018-03-31T13:31:29.069Z,14.70
2018-03-31T13:33:54.897Z,14.70
2018-03-31T13:36:20.769Z,14.80
2018-03-31T13:38:46.606Z,14.60
2018-03-31T13:41:12.432Z,14.70
2018-03-31T13:43:38.285Z,14.70
2018-03-31T13:46:04.254Z,14.40
2018-03-31T13:48:30.102Z,14.30
2018-03-31T13:50:56.081Z,14.40
2018-03-31T13:53:21.942Z,14.40
2018-03-31T13:55:48.522Z,13.90
2018-03-31T13:58:14.382Z,13.90
2018-03-31T14:00:40.210Z,13.90
2018-03-31T14:03:06.056Z,13.90
2018-03-31T14:05:31.926Z,13.80
2018-03-31T14:07:58.504Z,13.60
2018-03-31T14:10:24.489Z,13.60
2018-03-31T14:12:51.132Z,13.50
2018-03-31T14:15:16.982Z,13.60
2018-03-31T14:17:43.565Z,13.80
2018-03-31T14:20:09.441Z,13.70
2018-03-31T14:22:36.015Z,13.80
2018-03-31T14:25:02.586Z,13.80
2018-03-31T14:27:28.429Z,13.70
2018-03-31T14:29:54.258Z,13.90
2018-03-31T14:32:20.118Z,13.60
2018-03-31T14:34:45.988Z,13.60
2018-03-31T14:37:12.555Z,13.80
2018-03-31T14:39:39.130Z,13.80
2018-03-31T14:42:04.984Z,13.80
2018-03-31T14:44:30.816Z,13.90
2018-03-31T14:46:56.649Z,13.90
2018-03-31T14:49:22.517Z,13.80
2018-03-31T14:51:49.121Z,13.80
2018-03-31T14:54:14.952Z,13.80
2018-03-31T14:56:40.825Z,13.70
2018-03-31T14:59:06.657Z,13.80
2018-03-31T15:01:33.246Z,14.20
2018-03-31T15:03:59.094Z,14.20
2018-03-31T15:06:24.929Z,14.40
2018-03-31T15:08:50.773Z,14.30
2018-03-31T15:11:17.026Z,14.20
2018-03-31T15:13:42.856Z,14.10
2018-03-31T15:16:08.697Z,14.10
2018-03-31T15:18:34.721Z,14.10
2018-03-31T15:21:00.553Z,13.90
2018-03-31T15:23:26.389Z,13.70
2018-03-31T15:25:52.653Z,13.70
2018-03-31T15:28:19.237Z,13.40
2018-03-31T15:30:45.081Z,13.40
2018-03-31T15:33:10.945Z,13.30
2018-03-31T15:35:36.787Z,13.10
2018-03-31T15:38:03.742Z,13.10
2018-03-31T15:40:30.071Z,13.20
2018-03-31T15:42:55.912Z,13.30
2018-03-31T15:45:21.753Z,13.40
2018-03-31T15:47:47.654Z,13.50
2018-03-31T15:50:13.497Z,13.60
2018-03-31T15:52:39.333Z,13.60
2018-03-31T15:55:05.189Z,13.50
2018-03-31T15:57:31.020Z,13.50
2018-03-31T15:59:57.599Z,13.20
2018-03-31T16:02:23.511Z,13.30
2018-03-31T16:04:50.109Z,13.00
2018-03-31T16:07:15.942Z,13.00
2018-03-31T16:09:41.796Z,13.00
2018-03-31T16:12:07.849Z,13.00
2018-03-31T16:14:33.689Z,12.90
2018-03-31T16:16:59.549Z,12.80
2018-03-31T16:19:25.389Z,12.80
2018-03-31T16:21:51.302Z,12.90
2018-03-31T16:24:17.899Z,13.00
2018-03-31T16:26:43.728Z,13.00
2018-03-31T16:29:09.569Z,13.00
2018-03-31T16:31:35.456Z,13.00
2018-03-31T16:34:02.030Z,13.00
2018-03-31T16:36:27.865Z,13.00
2018-03-31T16:38:53.993Z,13.00
2018-03-31T16:41:19.838Z,12.90
2018-03-31T16:43:45.685Z,12.80
2018-03-31T16:46:11.551Z,12.70
2018-03-31T16:48:37.381Z,12.70
2018-03-31T16:51:03.989Z,12.60
2018-03-31T16:53:30.045Z,12.50
2018-03-31T16:55:57.365Z,12.50
2018-03-31T16:58:23.241Z,12.50
2018-03-31T17:00:49.118Z,12.40
2018-03-31T17:03:15.694Z,12.40
2018-03-31T17:05:41.528Z,12.40
2018-03-31T17:08:07.417Z,12.50
2018-03-31T17:10:33.997Z,12.50
2018-03-31T17:12:59.824Z,12.50
2018-03-31T17:15:25.697Z,12.40
2018-03-31T17:17:51.585Z,12.40
2018-03-31T17:20:17.422Z,12.40
2018-03-31T17:22:43.269Z,12.30
2018-03-31T17:25:09.093Z,12.20
2018-03-31T17:27:34.921Z,12.20
2018-03-31T17:30:00.777Z,12.10
2018-03-31T17:32:26.607Z,12.10
2018-03-31T17:34:52.462Z,12.00
2018-03-31T17:37:18.317Z,12.00
2018-03-31T17:39:44.157Z,11.80
2018-03-31T17:42:10.741Z,11.60
2018-03-31T17:44:36.602Z,11.60
2018-03-31T17:47:02.440Z,11.50
2018-03-31T17:49:28.282Z,11.50
2018-03-31T17:51:54.315Z,11.40
2018-03-31T17:54:20.157Z,11.20
2018-03-31T17:56:46.008Z,11.00
2018-03-31T17:59:12.601Z,11.10
2018-03-31T18:01:38.428Z,11.10
2018-03-31T18:04:04.266Z,11.00
2018-03-31T18:06:30.939Z,10.90
2018-03-31T18:08:57.518Z,10.60
2018-03-31T18:11:24.093Z,10.60
2018-03-31T18:13:50.081Z,10.60
2018-03-31T18:16:15.909Z,10.60
2018-03-31T18:18:41.758Z,10.60
2018-03-31T18:21:08.398Z,10.50
2018-03-31T18:23:34.237Z,10.50
2018-03-31T18:26:00.078Z,10.50
2018-03-31T18:28:26.718Z,10.30
2018-03-31T18:30:52.561Z,10.30
2018-03-31T18:33:19.211Z,10.20
2018-03-31T18:35:45.070Z,10.10
2018-03-31T18:38:10.905Z,10.20
2018-03-31T18:40:36.728Z,10.30
2018-03-31T18:43:03.317Z,10.20
2018-03-31T18:45:29.140Z,10.30
2018-03-31T18:47:54.987Z,10.20
2018-03-31T18:50:20.838Z,10.10
2018-03-31T18:52:46.685Z,10.10
2018-03-31T18:55:13.265Z,10.30
2018-03-31T18:57:39.871Z,10.20
2018-03-31T19:00:05.717Z,10.40
2018-03-31T19:02:31.560Z,10.30
2018-03-31T19:04:58.145Z,10.20
2018-03-31T19:07:23.989Z,10.10
2018-03-31T19:09:49.885Z,10.20
2018-03-31T19:12:15.877Z,10.20
2018-03-31T19:14:41.721Z,10.20
2018-03-31T19:17:13.576Z,10.20
2018-03-31T19:19:39.448Z,10.20
2018-03-31T19:22:06.039Z,10.00
2018-03-31T19:24:37.858Z,10.10
2018-03-31T19:27:04.442Z,10.00
2018-03-31T19:29:30.259Z,9.90
2018-03-31T19:31:56.833Z,9.90
2018-03-31T19:34:22.866Z,9.80
2018-03-31T19:36:48.675Z,9.80
2018-03-31T19:39:20.675Z,9.80
2018-03-31T19:41:46.653Z,9.80
2018-03-31T19:44:12.493Z,9.90
2018-03-31T19:46:38.346Z,9.80
2018-03-31T19:49:05.061Z,9.80
2018-03-31T19:51:30.907Z,9.80
2018-03-31T19:53:56.753Z,9.80
2018-03-31T19:56:22.792Z,9.90
2018-03-31T19:58:49.399Z,9.80
2018-03-31T20:01:15.237Z,9.80
2018-03-31T20:03:41.104Z,9.80
2018-03-31T20:06:07.678Z,9.80
2018-03-31T20:08:33.509Z,9.80
2018-03-31T20:10:59.339Z,9.90
2018-03-31T20:13:25.174Z,9.90
2018-03-31T20:15:51.016Z,9.90
2018-03-31T20:18:16.881Z,9.90
2018-03-31T20:20:42.717Z,10.00
2018-03-31T20:23:08.584Z,9.90
2018-03-31T20:25:34.439Z,9.90
2018-03-31T20:28:00.272Z,10.00
2018-03-31T20:30:26.100Z,10.00
2018-03-31T20:32:51.970Z,10.00
2018-03-31T20:35:18.580Z,9.80
2018-03-31T20:37:44.434Z,9.80
2018-03-31T20:40:10.301Z,9.70
2018-03-31T20:42:36.137Z,9.70
2018-03-31T20:45:01.973Z,9.70
2018-03-31T20:47:27.890Z,9.70
2018-03-31T20:49:53.720Z,9.70
2018-03-31T20:52:19.581Z,9.70
2018-03-31T20:54:46.370Z,9.90
2018-03-31T20:57:12.214Z,9.80
2018-03-31T20:59:38.036Z,9.90
2018-03-31T21:02:04.014Z,10.00
2018-03-31T21:04:29.835Z,10.00
2018-03-31T21:06:55.678Z,10.00
2018-03-31T21:09:21.733Z,10.00
2018-03-31T21:11:48.316Z,9.90
2018-03-31T21:14:14.146Z,9.90
2018-03-31T21:16:40.025Z,10.00
2018-03-31T21:19:05.856Z,10.00
2018-03-31T21:21:31.684Z,10.00
2018-03-31T21:23:57.533Z,10.00
2018-03-31T21:26:23.379Z,10.00
2018-03-31T21:28:49.958Z,10.00
2018-03-31T21:31:15.943Z,10.00
2018-03-31T21:33:41.782Z,10.00
2018-03-31T21:36:07.633Z,10.00
2018-03-31T21:38:34.361Z,10.00
2018-03-31T21:41:00.200Z,10.00
2018-03-31T21:43:26.034Z,10.10
2018-03-31T21:45:51.900Z,10.00
2018-03-31T21:48:17.754Z,10.00
2018-03-31T21:50:43.601Z,9.90
2018-03-31T21:53:09.453Z,9.80
2018-03-31T21:55:35.305Z,9.80
2018-03-31T21:58:01.143Z,9.80
2018-03-31T22:00:28.557Z,9.70
2018-03-31T22:02:54.385Z,9.70
2018-03-31T22:05:20.222Z,9.80
2018-03-31T22:07:46.079Z,9.70
2018-03-31T22:10:11.912Z,9.70
2018-03-31T22:12:37.749Z,9.60
2018-03-31T22:15:09.719Z,9.60
2018-03-31T22:17:36.314Z,9.50
2018-03-31T22:20:02.161Z,9.50
2018-03-31T22:22:28.091Z,9.50
2018-03-31T22:24:53.926Z,9.50
2018-03-31T22:27:19.766Z,9.50
2018-03-31T22:29:45.613Z,9.60
2018-03-31T22:32:11.447Z,9.90
2018-03-31T22:34:37.284Z,10.00
2018-03-31T22:37:03.429Z,10.10
2018-03-31T22:39:29.314Z,10.10
2018-03-31T22:41:55.144Z,10.00
2018-03-31T22:44:21.131Z,10.00
2018-03-31T22:46:46.972Z,9.90
2018-03-31T22:49:12.827Z,9.90
2018-03-31T22:51:39.438Z,9.90
2018-03-31T22:54:05.274Z,9.90
2018-03-31T22:56:31.106Z,9.80
2018-03-31T22:58:57.158Z,9.80
2018-03-31T23:01:23.004Z,9.80
2018-03-31T23:03:48.869Z,9.80
2018-03-31T23:06:14.997Z,9.70
2018-03-31T23:08:40.834Z,9.60
2018-03-31T23:11:06.661Z,9.60
2018-03-31T23:13:32.696Z,9.60
2018-03-31T23:15:58.552Z,9.60
2018-03-31T23:18:24.411Z,9.50
2018-03-31T23:20:50.291Z,9.50
2018-03-31T23:23:16.292Z,9.30
2018-03-31T23:25:42.151Z,9.30
2018-03-31T23:28:08.744Z,9.20
2018-03-31T23:30:34.564Z,9.20
2018-03-31T23:33:00.398Z,9.20
2018-03-31T23:35:26.251Z,9.20
2018-03-31T23:37:52.086Z,9.10
2018-03-31T23:40:17.922Z,9.10
2018-03-31T23:42:43.773Z,9.20
2018-03-31T23:45:09.616Z,9.20
2018-03-31T23:47:36.232Z,9.20
2018-03-31T23:50:02.095Z,9.20
2018-03-31T23:52:27.920Z,9.20
2018-03-31T23:54:53.765Z,9.20
2018-03-31T23:57:19.626Z,9.40
2018-03-31T23:59:45.459Z,9.40
